Time;durP1;ratioP1;P1;durP2;ratioP2;P2;SDS_P1;SDS_P2;PMS_P1;PMS_P2;Temp;Humidity;BMP_temperature;BMP_pressure;BME280_temperature;BME280_humidity;BME280_pressure;Samples;Min_cycle;Max_cycle;Signal;HPM_P1;HPM_P2
2022/08/17 00:00:59;;;;;;;44.08;35.85;;;21.30;99.90;;;;;;6365576;22;20017;-82
2022/08/17 00:03:24;;;;;;;40.03;34.40;;;21.40;99.90;;;;;;6361947;22;20006;-80
2022/08/17 00:05:56;;;;;;;38.70;32.08;;;21.50;99.90;;;;;;6365483;22;20003;-80
2022/08/17 00:08:28;;;;;;;39.83;33.58;;;21.50;99.90;;;;;;6364561;22;20078;-80
2022/08/17 00:10:55;;;;;;;37.08;33.15;;;21.60;99.90;;;;;;6364014;22;19994;-81
2022/08/17 00:13:26;;;;;;;40.28;35.97;;;21.70;99.90;;;;;;6358635;22;20006;-81
2022/08/17 00:15:55;;;;;;;37.92;31.13;;;21.70;99.90;;;;;;6357398;22;19999;-79
2022/08/17 00:18:20;;;;;;;40.13;31.35;;;21.70;99.90;;;;;;6343239;22;19999;-80
2022/08/17 00:20:46;;;;;;;35.30;31.55;;;21.70;99.90;;;;;;6340539;22;20018;-79
2022/08/17 00:23:15;;;;;;;34.15;29.75;;;21.70;99.90;;;;;;6340263;22;20026;-79
2022/08/17 00:25:44;;;;;;;41.10;36.70;;;21.70;99.90;;;;;;6339402;22;20015;-80
2022/08/17 00:28:11;;;;;;;41.72;34.53;;;21.70;99.90;;;;;;6338721;22;20361;-80
2022/08/17 00:30:37;;;;;;;34.55;30.83;;;21.70;99.90;;;;;;6338428;22;20007;-79
2022/08/17 00:33:15;;;;;;;41.13;35.17;;;21.60;99.90;;;;;;6337646;22;20430;-80
2022/08/17 00:35:42;;;;;;;39.97;34.33;;;21.60;99.90;;;;;;6337886;22;20010;-80
2022/08/17 00:38:08;;;;;;;36.42;30.27;;;21.50;99.90;;;;;;6337171;22;20002;-80
2022/08/17 00:40:39;;;;;;;34.95;31.25;;;21.50;99.90;;;;;;6338294;22;20086;-79
2022/08/17 00:43:32;;;;;;;36.53;32.28;;;21.40;99.90;;;;;;6338469;22;20185;-80
2022/08/17 00:46:04;;;;;;;37.70;33.60;;;21.50;99.90;;;;;;6337398;22;20484;-80
2022/08/17 00:48:30;;;;;;;39.70;34.00;;;21.40;99.90;;;;;;6337948;22;20116;-80
2022/08/17 00:50:59;;;;;;;40.67;33.22;;;21.40;99.90;;;;;;6310502;22;20002;-80
2022/08/17 00:53:28;;;;;;;40.13;34.92;;;21.30;99.90;;;;;;6337267;22;20010;-80
2022/08/17 00:55:54;;;;;;;43.00;38.40;;;21.30;99.90;;;;;;6338305;22;20004;-80
2022/08/17 00:58:21;;;;;;;38.95;34.53;;;21.20;99.90;;;;;;6337809;22;20101;-80
2022/08/17 01:00:47;;;;;;;39.42;35.28;;;21.00;99.90;;;;;;6337892;22;20014;-80
2022/08/17 01:03:18;;;;;;;37.83;33.05;;;21.00;99.90;;;;;;6338040;22;20007;-80
2022/08/17 01:05:47;;;;;;;36.28;31.65;;;21.00;99.90;;;;;;6338071;22;20010;-80
2022/08/17 01:08:15;;;;;;;35.88;31.42;;;21.00;99.90;;;;;;6339283;22;20070;-81
2022/08/17 01:10:49;;;;;;;34.78;31.08;;;21.00;99.90;;;;;;6339616;22;20006;-80
2022/08/17 01:13:15;;;;;;;32.65;29.13;;;21.00;99.90;;;;;;6337211;22;20002;-79
2022/08/17 01:15:59;;;;;;;35.55;30.98;;;21.00;99.90;;;;;;6337100;22;20429;-79
2022/08/17 01:18:25;;;;;;;34.50;30.92;;;21.00;99.90;;;;;;6338666;22;20041;-80
2022/08/17 01:20:53;;;;;;;33.33;29.50;;;21.10;99.90;;;;;;6341300;22;20084;-80
2022/08/17 01:23:22;;;;;;;32.65;28.83;;;21.00;99.90;;;;;;6360512;22;19987;-78
2022/08/17 01:25:54;;;;;;;31.98;28.13;;;21.10;99.90;;;;;;6342514;22;20010;-80
2022/08/17 01:28:20;;;;;;;33.25;29.70;;;21.20;99.90;;;;;;6338768;22;19999;-80
2022/08/17 01:30:47;;;;;;;32.97;29.58;;;21.20;99.90;;;;;;6338596;22;19999;-80
2022/08/17 01:33:13;;;;;;;37.88;33.75;;;21.30;99.90;;;;;;6349335;22;20002;-80
2022/08/17 01:35:39;;;;;;;35.85;31.70;;;21.30;99.90;;;;;;6349572;22;20487;-80
2022/08/17 01:38:06;;;;;;;32.88;29.13;;;21.30;99.90;;;;;;6347796;22;20010;-80
2022/08/17 01:40:43;;;;;;;36.42;31.50;;;21.40;99.90;;;;;;6352108;22;20445;-79
2022/08/17 01:43:24;;;;;;;38.65;33.45;;;21.30;99.90;;;;;;6339538;22;20007;-80
2022/08/17 01:45:52;;;;;;;37.80;31.63;;;21.50;99.90;;;;;;6340313;22;19999;-79
2022/08/17 01:48:19;;;;;;;35.25;28.40;;;21.40;99.90;;;;;;6339693;22;20062;-80
2022/08/17 01:50:46;;;;;;;35.55;30.83;;;21.40;99.90;;;;;;6340926;22;20005;-80
2022/08/17 01:53:18;;;;;;;37.90;33.45;;;21.40;99.90;;;;;;6341268;22;20052;-80
2022/08/17 01:55:51;;;;;;;32.55;29.13;;;21.40;99.90;;;;;;6341536;22;20003;-81
2022/08/17 01:58:18;;;;;;;31.73;28.33;;;21.30;99.90;;;;;;6341915;22;20049;-80
2022/08/17 02:00:45;;;;;;;37.78;30.60;;;21.20;99.90;;;;;;6339803;22;20373;-80
2022/08/17 02:03:12;;;;;;;34.70;29.15;;;21.20;99.90;;;;;;6339974;22;20068;-80
2022/08/17 02:05:38;;;;;;;31.58;28.38;;;21.20;99.90;;;;;;6339910;22;20003;-80
2022/08/17 02:08:06;;;;;;;35.22;29.52;;;21.10;99.90;;;;;;6339632;22;20533;-81
2022/08/17 02:10:33;;;;;;;33.42;29.88;;;21.20;99.90;;;;;;6339238;22;19999;-80
2022/08/17 02:13:00;;;;;;;39.72;32.53;;;21.10;99.90;;;;;;6339592;22;20003;-80
2022/08/17 02:15:25;;;;;;;30.23;26.77;;;21.10;99.90;;;;;;6338937;22;20330;-80
2022/08/17 02:17:51;;;;;;;32.25;28.95;;;21.00;99.90;;;;;;6339763;22;20027;-81
2022/08/17 02:20:18;;;;;;;32.40;29.08;;;21.00;99.90;;;;;;6340036;22;20403;-79
2022/08/17 02:22:46;;;;;;;36.40;32.50;;;21.00;99.90;;;;;;6341633;22;20042;-82
2022/08/17 02:25:17;;;;;;;39.10;35.00;;;21.20;99.90;;;;;;6339603;22;20006;-79
2022/08/17 02:27:43;;;;;;;48.25;38.15;;;21.30;99.90;;;;;;6339739;22;20003;-77
2022/08/17 02:30:12;;;;;;;58.35;42.50;;;21.30;99.90;;;;;;6338513;22;19998;-78
2022/08/17 02:32:37;;;;;;;54.08;41.08;;;21.20;99.90;;;;;;6338999;22;20464;-78
2022/08/17 02:35:04;;;;;;;55.97;41.78;;;21.00;99.90;;;;;;6339309;22;19999;-78
2022/08/17 02:37:30;;;;;;;46.33;38.63;;;20.80;99.90;;;;;;6337702;22;20006;-78
2022/08/17 02:39:57;;;;;;;45.78;40.65;;;20.70;99.90;;;;;;6338448;22;20212;-79
2022/08/17 02:42:37;;;;;;;49.25;41.22;;;20.50;99.90;;;;;;6338348;22;20316;-80
2022/08/17 02:45:07;;;;;;;50.45;41.40;;;20.30;99.90;;;;;;6310200;22;20011;-79
2022/08/17 02:47:33;;;;;;;52.70;42.95;;;20.20;99.90;;;;;;6338227;22;20003;-77
2022/08/17 02:49:59;;;;;;;52.55;40.90;;;20.20;99.90;;;;;;6338292;22;20011;-78
2022/08/17 02:52:26;;;;;;;53.88;42.45;;;20.10;99.90;;;;;;6338066;22;20013;-79
2022/08/17 02:54:53;;;;;;;55.92;48.58;;;20.20;99.90;;;;;;6338245;22;19999;-79
2022/08/17 02:57:20;;;;;;;60.35;49.20;;;20.10;99.90;;;;;;6338251;22;20342;-77
2022/08/17 02:59:46;;;;;;;62.60;52.00;;;20.00;99.90;;;;;;6338473;22;20365;-78
2022/08/17 03:02:11;;;;;;;67.57;51.22;;;19.80;99.90;;;;;;6338464;22;20064;-78
2022/08/17 03:04:37;;;;;;;71.43;55.78;;;19.80;99.90;;;;;;6337729;22;20450;-78
2022/08/17 03:07:03;;;;;;;70.05;52.85;;;19.60;99.90;;;;;;6338677;22;20009;-79
2022/08/17 03:09:30;;;;;;;65.32;50.65;;;19.50;99.90;;;;;;6338586;22;20006;-78
2022/08/17 03:12:08;;;;;;;68.20;52.28;;;19.50;99.90;;;;;;6338140;22;20011;-80
2022/08/17 03:14:39;;;;;;;69.25;50.53;;;19.30;99.90;;;;;;6337794;22;20461;-80
2022/08/17 03:17:06;;;;;;;57.58;45.47;;;19.10;99.90;;;;;;6338783;22;20025;-82
2022/08/17 03:19:32;;;;;;;62.33;46.03;;;19.10;99.90;;;;;;6337142;22;20003;-80
2022/08/17 03:21:58;;;;;;;57.00;44.45;;;19.10;99.90;;;;;;6338550;22;20098;-80
2022/08/17 03:24:24;;;;;;;62.40;43.63;;;19.00;99.90;;;;;;6338356;22;20079;-79
2022/08/17 03:26:49;;;;;;;60.90;42.58;;;19.10;99.90;;;;;;6338261;22;20006;-79
2022/08/17 03:29:18;;;;;;;58.05;42.88;;;19.00;99.90;;;;;;6338637;22;19999;-80
2022/08/17 03:31:47;;;;;;;63.50;44.53;;;18.90;99.90;;;;;;6338782;22;20013;-81
2022/08/17 03:34:14;;;;;;;57.83;42.63;;;18.90;99.90;;;;;;6338048;22;20135;-80
2022/08/17 03:36:40;;;;;;;65.38;45.40;;;18.80;99.90;;;;;;6339192;22;20354;-79
2022/08/17 03:39:08;;;;;;;70.03;47.10;;;18.90;99.90;;;;;;6338736;22;20010;-78
2022/08/17 03:41:34;;;;;;;70.00;48.08;;;18.80;99.90;;;;;;6338038;22;20361;-79
2022/08/17 03:44:01;;;;;;;70.05;50.92;;;18.80;99.90;;;;;;6339268;22;19994;-80
2022/08/17 03:57:26;;;;;;;73.50;49.67;;;18.60;99.90;;;;;;6337882;22;20045;-80
2022/08/17 03:59:53;;;;;;;67.90;47.55;;;18.70;99.90;;;;;;6338312;22;19998;-80
2022/08/17 04:02:28;;;;;;;63.72;46.13;;;18.60;99.90;;;;;;6337284;22;20015;-79
2022/08/17 04:04:54;;;;;;;62.10;46.95;;;18.70;99.90;;;;;;6338732;22;20406;-79
2022/08/17 04:07:22;;;;;;;55.45;43.10;;;18.60;99.90;;;;;;6337408;22;20055;-80
2022/08/17 04:09:48;;;;;;;55.15;38.67;;;18.80;99.90;;;;;;6337226;22;20461;-80
2022/08/17 04:12:16;;;;;;;60.97;43.42;;;18.70;99.90;;;;;;6336186;22;20054;-80
2022/08/17 04:14:42;;;;;;;57.42;42.78;;;18.70;99.90;;;;;;6337985;22;20009;-80
2022/08/17 04:17:08;;;;;;;62.67;43.28;;;18.70;99.90;;;;;;6337535;22;20070;-80
2022/08/17 04:19:35;;;;;;;57.17;43.08;;;18.50;99.90;;;;;;6337681;22;20431;-78
2022/08/17 04:22:04;;;;;;;66.68;42.97;;;18.60;99.90;;;;;;6338018;22;20056;-79
2022/08/17 04:24:33;;;;;;;56.85;41.35;;;18.60;99.90;;;;;;6337104;22;20015;-80
2022/08/17 04:27:00;;;;;;;61.40;42.00;;;18.80;99.90;;;;;;6338988;22;20087;-80
2022/08/17 04:29:25;;;;;;;55.00;41.25;;;18.80;99.90;;;;;;6338643;22;20053;-80
2022/08/17 04:31:51;;;;;;;60.35;41.28;;;18.80;99.90;;;;;;6339082;22;19995;-80
2022/08/17 04:34:18;;;;;;;69.30;42.03;;;18.80;99.90;;;;;;6339926;22;19995;-80
2022/08/17 04:36:45;;;;;;;60.67;42.58;;;18.80;99.90;;;;;;6342373;22;20029;-80
2022/08/17 04:39:11;;;;;;;57.40;43.67;;;18.70;99.90;;;;;;6344059;22;19998;-79
2022/08/17 04:44:23;;;;;;;69.40;46.15;;;18.70;99.90;;;;;;6365249;22;20009;-79
2022/08/17 04:46:49;;;;;;;60.75;43.55;;;18.70;99.90;;;;;;6366083;22;19998;-79
2022/08/17 04:49:14;;;;;;;59.00;42.00;;;18.70;99.90;;;;;;6364758;22;19995;-79
2022/08/17 04:51:43;;;;;;;63.65;44.03;;;18.80;99.90;;;;;;6362228;22;20018;-78
2022/08/17 04:54:11;;;;;;;64.55;44.60;;;18.70;99.90;;;;;;6364402;22;19991;-79
2022/08/17 04:56:37;;;;;;;54.65;41.90;;;18.80;99.90;;;;;;6364428;22;19995;-78
2022/08/17 04:59:11;;;;;;;58.85;42.08;;;18.80;99.90;;;;;;6363422;22;20018;-78
2022/08/17 05:01:40;;;;;;;45.60;37.75;;;18.40;99.90;;;;;;6341928;22;20021;-81
2022/08/17 05:04:09;;;;;;;52.10;40.20;;;18.90;99.90;;;;;;6340677;22;20002;-80
2022/08/17 05:06:35;;;;;;;49.13;38.45;;;18.90;99.90;;;;;;6340238;22;20052;-81
2022/08/17 05:09:02;;;;;;;54.28;40.65;;;18.90;99.90;;;;;;6339119;22;20003;-80
2022/08/17 05:11:28;;;;;;;56.55;39.80;;;18.80;99.90;;;;;;6337300;22;20081;-80
2022/08/17 05:13:56;;;;;;;46.50;37.60;;;18.80;99.90;;;;;;6338943;22;20048;-81
2022/08/17 05:16:23;;;;;;;53.03;40.85;;;18.80;99.90;;;;;;6340810;22;20009;-80
2022/08/17 05:18:49;;;;;;;56.55;42.05;;;18.70;99.90;;;;;;6339847;22;19999;-81
2022/08/17 05:21:17;;;;;;;53.15;39.72;;;18.70;99.90;;;;;;6339787;22;20018;-80
2022/08/17 05:23:44;;;;;;;51.30;40.97;;;18.70;99.90;;;;;;6312538;22;20002;-82
2022/08/17 05:26:17;;;;;;;54.90;42.75;;;18.70;99.90;;;;;;6338809;22;20097;-80
2022/08/17 05:28:43;;;;;;;53.08;42.13;;;18.80;99.90;;;;;;6340516;22;19999;-82
2022/08/17 05:31:09;;;;;;;54.05;39.47;;;18.80;99.90;;;;;;6341534;22;20510;-81
2022/08/17 05:33:38;;;;;;;61.50;41.10;;;18.80;99.90;;;;;;6342571;22;20006;-82
2022/08/17 05:36:05;;;;;;;49.92;39.90;;;18.80;99.90;;;;;;6344807;22;20022;-80
2022/08/17 05:38:31;;;;;;;52.75;38.78;;;18.80;99.90;;;;;;6339115;22;20308;-81
2022/08/17 05:41:00;;;;;;;50.47;37.78;;;18.80;99.90;;;;;;6339321;22;20089;-80
2022/08/17 05:43:32;;;;;;;48.55;39.10;;;18.80;99.90;;;;;;6339870;22;20028;-81
2022/08/17 05:46:16;;;;;;;46.72;38.13;;;18.80;99.90;;;;;;6340664;22;20005;-80
2022/08/17 05:48:56;;;;;;;50.00;37.65;;;18.90;99.90;;;;;;6340139;22;19999;-79
2022/08/17 05:51:31;;;;;;;45.92;36.97;;;18.80;99.90;;;;;;6340132;22;19998;-80
2022/08/17 05:54:25;;;;;;;49.38;37.78;;;18.80;99.90;;;;;;6339943;22;20053;-80
2022/08/17 05:57:00;;;;;;;44.00;35.70;;;18.90;99.90;;;;;;6339493;22;19998;-79
2022/08/17 06:00:06;;;;;;;49.88;35.58;;;18.90;99.90;;;;;;6339168;22;20007;-80
2022/08/17 06:02:47;;;;;;;41.35;34.97;;;19.00;99.90;;;;;;6338738;22;20031;-78
2022/08/17 06:05:34;;;;;;;39.97;33.35;;;19.00;99.90;;;;;;6339146;22;20029;-80
2022/08/17 06:08:19;;;;;;;43.22;31.88;;;19.00;99.90;;;;;;6338753;22;20087;-80
2022/08/17 06:11:05;;;;;;;43.45;33.03;;;19.10;99.90;;;;;;6338513;22;20010;-78
2022/08/17 06:13:50;;;;;;;39.67;33.95;;;19.10;99.90;;;;;;6337859;22;20364;-79
2022/08/17 06:16:20;;;;;;;42.53;34.00;;;19.10;99.90;;;;;;6337824;22;19999;-77
2022/08/17 06:19:00;;;;;;;39.50;33.53;;;19.20;99.90;;;;;;6339120;22;20010;-77
2022/08/17 06:21:32;;;;;;;39.50;33.00;;;19.20;99.90;;;;;;6338498;22;20090;-78
2022/08/17 06:24:13;;;;;;;44.67;36.25;;;19.20;99.90;;;;;;6338190;22;20009;-78
2022/08/17 06:26:40;;;;;;;;;;;19.20;99.90;;;;;;6340120;22;20006;-78
2022/08/17 06:29:32;;;;;;;41.47;32.30;;;19.20;99.90;;;;;;6337389;22;19902;-79
2022/08/17 06:31:57;;;;;;;41.13;34.85;;;19.40;99.90;;;;;;6338062;22;20050;-79
2022/08/17 06:34:23;;;;;;;43.90;36.13;;;19.40;99.90;;;;;;6336536;22;20019;-80
2022/08/17 06:36:59;;;;;;;42.15;34.80;;;19.40;99.90;;;;;;6337625;22;20002;-76
2022/08/17 06:39:57;;;;;;;43.33;34.35;;;19.40;99.90;;;;;;6336954;22;20027;-78
2022/08/17 06:42:43;;;;;;;41.92;35.05;;;19.50;99.90;;;;;;6284040;22;20007;-77
2022/08/17 06:45:33;;;;;;;43.55;33.78;;;19.50;99.90;;;;;;6336778;22;19998;-76
2022/08/17 06:48:14;;;;;;;40.70;32.63;;;19.60;99.90;;;;;;6337144;22;20029;-77
2022/08/17 06:50:54;;;;;;;35.83;31.85;;;19.60;99.90;;;;;;6336989;22;20010;-78
2022/08/17 06:53:30;;;;;;;40.22;32.45;;;19.60;99.90;;;;;;6337025;22;20376;-79
2022/08/17 06:56:08;;;;;;;40.97;32.10;;;19.50;99.90;;;;;;6337394;22;20026;-78
2022/08/17 06:58:37;;;;;;;42.60;32.63;;;19.50;99.90;;;;;;6337839;22;20325;-77
2022/08/17 07:01:32;;;;;;;41.88;32.28;;;19.60;99.90;;;;;;6335533;22;20464;-77
2022/08/17 07:04:15;;;;;;;46.17;34.38;;;19.60;99.90;;;;;;6334451;22;19998;-77
2022/08/17 07:06:53;;;;;;;36.95;31.02;;;19.70;99.90;;;;;;6337231;22;20431;-77
2022/08/17 07:09:27;;;;;;;32.53;29.00;;;19.80;99.90;;;;;;6337707;22;20006;-76
2022/08/17 07:11:57;;;;;;;32.78;28.55;;;19.90;99.90;;;;;;6338025;22;20022;-76
2022/08/17 07:14:50;;;;;;;35.63;28.58;;;19.80;99.90;;;;;;6338584;22;20026;-77
2022/08/17 07:17:17;;;;;;;30.63;26.40;;;19.90;99.90;;;;;;6337595;22;20007;-78
2022/08/17 07:19:46;;;;;;;29.52;26.30;;;19.90;99.90;;;;;;6337001;22;19999;-77
2022/08/17 07:22:49;;;;;;;30.23;27.00;;;19.90;99.90;;;;;;6337259;22;20427;-77
2022/08/17 07:25:17;;;;;;;28.10;25.35;;;19.90;99.90;;;;;;6337762;22;20019;-77
2022/08/17 07:27:52;;;;;;;29.70;24.65;;;19.90;99.90;;;;;;6337980;22;20033;-77
2022/08/17 07:30:22;;;;;;;30.35;25.20;;;19.90;99.90;;;;;;6338195;22;20484;-75
2022/08/17 07:32:49;;;;;;;27.92;24.58;;;19.80;99.90;;;;;;6337753;22;20006;-76
2022/08/17 07:35:15;;;;;;;28.38;24.38;;;19.80;99.90;;;;;;6337888;22;20058;-76
2022/08/17 07:38:05;;;;;;;28.77;25.02;;;19.80;99.90;;;;;;6338057;22;20002;-76
2022/08/17 07:40:38;;;;;;;31.85;25.67;;;19.80;99.90;;;;;;6336167;22;20015;-77
2022/08/17 07:43:24;;;;;;;29.67;23.90;;;19.80;99.90;;;;;;6338068;22;20010;-77
2022/08/17 07:48:48;;;;;;;26.38;23.40;;;19.90;99.90;;;;;;6337465;22;20532;-76
2022/08/17 07:51:25;;;;;;;;;;;19.90;99.90;;;;;;6337612;22;20003;-76
2022/08/17 07:53:52;;;;;;;24.80;21.88;;;19.90;99.90;;;;;;6337133;22;19899;-77
2022/08/17 07:56:35;;;;;;;20.27;18.27;;;20.00;99.90;;;;;;6337867;22;20315;-76
2022/08/17 07:59:32;;;;;;;18.15;16.45;;;19.90;99.90;;;;;;6338071;22;20074;-76
2022/08/17 08:01:59;;;;;;;16.95;15.25;;;20.00;99.90;;;;;;6318700;22;20376;-75
2022/08/17 08:04:33;;;;;;;14.93;13.50;;;20.00;99.90;;;;;;6337899;22;20272;-75
2022/08/17 08:07:01;;;;;;;14.95;13.38;;;20.10;99.90;;;;;;6337979;22;19999;-76
2022/08/17 08:09:33;;;;;;;12.82;11.85;;;20.00;99.90;;;;;;6336218;22;20010;-76
2022/08/17 08:12:19;;;;;;;12.27;11.27;;;19.90;99.90;;;;;;6338456;22;20003;-75
2022/08/17 08:14:56;;;;;;;12.32;11.38;;;19.90;99.90;;;;;;6337770;22;20077;-75
2022/08/17 08:17:34;;;;;;;13.05;11.90;;;19.90;99.90;;;;;;6337403;22;20423;-75
2022/08/17 08:20:05;;;;;;;13.40;12.27;;;19.90;99.90;;;;;;6337921;22;20003;-74
2022/08/17 08:23:17;;;;;;;12.93;11.73;;;19.90;99.90;;;;;;6336851;22;20023;-76
2022/08/17 08:25:58;;;;;;;11.95;11.02;;;19.80;99.90;;;;;;6337659;22;20053;-76
2022/08/17 08:28:30;;;;;;;10.13;9.30;;;19.90;99.90;;;;;;6337515;22;20033;-76
2022/08/17 08:31:18;;;;;;;10.65;9.85;;;20.10;99.90;;;;;;6337263;22;20011;-76
2022/08/17 08:33:55;;;;;;;11.05;10.15;;;20.10;99.90;;;;;;6337747;22;20312;-77
2022/08/17 08:36:25;;;;;;;12.35;11.35;;;20.00;99.90;;;;;;6336959;22;20319;-77
2022/08/17 08:39:08;;;;;;;12.27;11.18;;;20.00;99.90;;;;;;6337961;22;20007;-77
2022/08/17 08:41:34;;;;;;;13.55;12.32;;;19.90;99.90;;;;;;6338155;22;20014;-77
2022/08/17 08:44:29;;;;;;;13.00;11.80;;;20.00;99.90;;;;;;6309120;22;20437;-77
2022/08/17 08:47:01;;;;;;;15.73;12.52;;;20.00;99.90;;;;;;6337710;22;20117;-77
2022/08/17 08:49:54;;;;;;;15.25;13.65;;;20.00;99.90;;;;;;6337381;22;20010;-77
2022/08/17 08:52:29;;;;;;;14.95;13.68;;;19.90;99.90;;;;;;6337574;22;20009;-77
2022/08/17 08:55:04;;;;;;;16.27;14.68;;;20.00;99.90;;;;;;6339226;22;20009;-78
2022/08/17 08:57:39;;;;;;;15.65;14.35;;;20.00;99.90;;;;;;6339034;22;20093;-77
2022/08/17 09:00:18;;;;;;;17.45;16.02;;;20.00;99.90;;;;;;6339738;22;20007;-77
2022/08/17 09:03:18;;;;;;;16.90;15.35;;;20.10;99.90;;;;;;6339593;22;20010;-77
2022/08/17 09:05:56;;;;;;;14.82;13.68;;;20.10;99.90;;;;;;6338877;22;20010;-77
2022/08/17 09:09:02;;;;;;;15.07;13.55;;;20.30;99.90;;;;;;6339299;22;20005;-77
2022/08/17 09:11:53;;;;;;;14.27;13.18;;;20.40;99.90;;;;;;6338395;22;19998;-76
2022/08/17 09:14:31;;;;;;;14.32;13.05;;;20.50;99.90;;;;;;6339287;22;20003;-77
2022/08/17 09:17:05;;;;;;;15.35;13.48;;;20.70;99.90;;;;;;6339240;22;20014;-77
2022/08/17 09:19:50;;;;;;;16.00;14.63;;;20.70;99.90;;;;;;6338491;22;20415;-77
2022/08/17 09:22:41;;;;;;;14.85;13.65;;;20.70;99.90;;;;;;6338841;22;20011;-76
2022/08/17 09:25:22;;;;;;;15.65;14.30;;;20.90;99.90;;;;;;6338891;22;20018;-77
2022/08/17 09:27:57;;;;;;;14.25;13.15;;;21.10;99.90;;;;;;6340138;22;19999;-76
2022/08/17 09:30:25;;;;;;;15.05;13.65;;;21.40;99.90;;;;;;6339385;22;20101;-77
2022/08/17 09:32:58;;;;;;;14.07;12.93;;;21.50;99.90;;;;;;6339555;22;20005;-76
2022/08/17 09:35:33;;;;;;;14.75;13.43;;;21.70;99.90;;;;;;6339977;22;20365;-77
2022/08/17 09:38:45;;;;;;;15.52;14.23;;;21.80;99.90;;;;;;6339068;22;20034;-76
2022/08/17 09:41:32;;;;;;;12.45;11.27;;;22.00;99.90;;;;;;6290476;22;20015;-76
2022/08/17 09:44:12;;;;;;;14.30;13.02;;;22.10;99.90;;;;;;6341378;22;20025;-76
2022/08/17 09:46:52;;;;;;;14.52;13.43;;;22.30;99.90;;;;;;6343355;22;19999;-76
2022/08/17 09:49:28;;;;;;;13.50;12.37;;;22.30;99.90;;;;;;6342853;22;20002;-76
2022/08/17 09:52:02;;;;;;;13.52;12.43;;;22.20;99.90;;;;;;6344693;22;20273;-75
2022/08/17 09:54:30;;;;;;;13.45;12.15;;;22.20;99.90;;;;;;6356032;22;19986;-75
2022/08/17 09:57:09;;;;;;;15.02;13.60;;;22.10;99.90;;;;;;6356994;22;20468;-75
2022/08/17 10:00:14;;;;;;;14.75;13.32;;;22.20;99.90;;;;;;6348293;22;19999;-75
2022/08/17 10:02:59;;;;;;;13.48;12.10;;;22.00;99.90;;;;;;6349830;22;20034;-76
2022/08/17 10:05:40;;;;;;;14.00;12.57;;;22.20;99.90;;;;;;6338947;22;19999;-76
2022/08/17 10:08:23;;;;;;;13.48;12.25;;;22.20;99.90;;;;;;6338625;22;20190;-75
2022/08/17 10:11:09;;;;;;;15.35;14.00;;;22.20;99.90;;;;;;6339359;22;19999;-76
2022/08/17 10:14:09;;;;;;;15.02;13.60;;;22.10;99.90;;;;;;6339013;22;19999;-77
2022/08/17 10:16:44;;;;;;;14.95;13.68;;;22.10;99.90;;;;;;6338730;22;20086;-76
2022/08/17 10:19:21;;;;;;;16.08;14.60;;;22.10;99.90;;;;;;6339056;22;20028;-77
2022/08/17 10:27:43;;;;;;;15.35;13.82;;;21.80;99.90;;;;;;6338240;22;20013;-76
2022/08/17 10:30:12;;;;;;;15.88;14.45;;;21.70;99.90;;;;;;6338166;22;20007;-77
2022/08/17 10:32:44;;;;;;;15.27;13.88;;;21.60;99.90;;;;;;6338824;22;19998;-77
2022/08/17 10:35:28;;;;;;;15.55;13.75;;;21.70;99.90;;;;;;6338262;22;20010;-76
2022/08/17 10:38:22;;;;;;;16.35;14.77;;;21.70;99.90;;;;;;6338922;22;20065;-75
2022/08/17 10:41:11;;;;;;;16.50;15.05;;;21.80;99.90;;;;;;6337178;22;20009;-76
2022/08/17 10:44:02;;;;;;;16.42;14.95;;;21.80;99.90;;;;;;6324887;22;20070;-77
2022/08/17 10:46:52;;;;;;;17.08;15.25;;;21.70;99.90;;;;;;6338597;22;20003;-77
2022/08/17 10:49:19;;;;;;;18.08;16.38;;;21.60;99.90;;;;;;6338584;22;20034;-76
2022/08/17 10:51:47;;;;;;;17.75;15.40;;;21.50;99.90;;;;;;6337962;22;20030;-76
2022/08/17 10:55:05;;;;;;;15.98;14.48;;;21.50;99.90;;;;;;6338594;22;20427;-77
2022/08/17 10:57:35;;;;;;;17.30;15.52;;;21.40;99.90;;;;;;6337828;22;20410;-77
2022/08/17 11:00:14;;;;;;;16.23;14.70;;;21.30;99.90;;;;;;6338521;22;20007;-77
2022/08/17 11:02:52;;;;;;;16.42;14.93;;;21.30;99.90;;;;;;6338529;22;20020;-77
2022/08/17 11:05:44;;;;;;;16.98;14.30;;;21.30;99.90;;;;;;6337916;22;20058;-76
2022/08/17 11:08:32;;;;;;;16.08;14.55;;;21.40;99.90;;;;;;6337969;22;19994;-76
2022/08/17 11:11:09;;;;;;;16.83;15.27;;;21.40;99.90;;;;;;6337600;22;20488;-76
2022/08/17 11:13:47;;;;;;;18.35;16.40;;;21.40;99.90;;;;;;6338646;22;19995;-77
2022/08/17 11:16:37;;;;;;;18.17;16.48;;;21.40;99.90;;;;;;6337249;22;20544;-76
2022/08/17 11:19:23;;;;;;;19.35;17.42;;;21.30;99.90;;;;;;6337565;22;19999;-76
2022/08/17 11:22:15;;;;;;;16.60;15.02;;;21.20;99.90;;;;;;6338193;22;20011;-77
2022/08/17 11:24:46;;;;;;;16.67;15.13;;;21.20;99.90;;;;;;6337417;22;20446;-77
2022/08/17 11:27:24;;;;;;;16.45;14.98;;;21.20;99.90;;;;;;6337733;22;20370;-77
2022/08/17 11:30:12;;;;;;;19.42;17.20;;;21.10;99.90;;;;;;6338248;22;20006;-77
2022/08/17 11:32:46;;;;;;;16.95;15.55;;;21.10;99.90;;;;;;6337458;22;20442;-76
2022/08/17 11:35:20;;;;;;;16.20;14.68;;;21.10;99.90;;;;;;6337613;22;20066;-75
2022/08/17 11:38:01;;;;;;;15.13;13.70;;;21.20;99.90;;;;;;6337895;22;20030;-76
2022/08/17 11:40:56;;;;;;;15.73;14.25;;;21.20;99.90;;;;;;6337449;22;20029;-76
2022/08/17 11:43:47;;;;;;;15.77;14.23;;;21.10;99.90;;;;;;6337704;22;20052;-80
2022/08/17 11:52:47;;;;;;;14.27;12.90;;;21.00;99.90;;;;;;6338314;22;20137;-81
2022/08/17 11:55:33;;;;;;;16.67;14.60;;;21.00;99.90;;;;;;6338081;22;20323;-80
2022/08/17 11:58:01;;;;;;;19.88;14.45;;;20.90;99.90;;;;;;6337984;22;20007;-82
2022/08/17 12:00:45;;;;;;;16.60;15.00;;;20.80;99.90;;;;;;6337551;22;20438;-83
2022/08/17 12:03:35;;;;;;;18.60;15.05;;;20.80;99.90;;;;;;6338821;22;20002;-83
2022/08/17 12:06:38;;;;;;;17.60;15.85;;;20.80;99.90;;;;;;6324701;22;19999;-85
2022/08/17 12:09:26;;;;;;;18.90;16.92;;;20.80;99.90;;;;;;6339138;22;19999;-84
2022/08/17 12:12:01;;;;;;;19.13;17.33;;;20.90;99.90;;;;;;6338555;22;20361;-83
2022/08/17 12:14:28;;;;;;;17.75;16.05;;;20.60;99.90;;;;;;6338414;22;20013;-83
2022/08/17 12:17:12;;;;;;;19.58;17.67;;;20.60;99.90;;;;;;6338524;22;20006;-83
2022/08/17 12:19:41;;;;;;;19.70;17.95;;;20.50;99.90;;;;;;6337893;22;20003;-83
2022/08/17 12:22:31;;;;;;;19.10;17.23;;;20.60;99.90;;;;;;6337378;22;20014;-83
2022/08/17 12:25:35;;;;;;;23.60;21.23;;;20.60;99.90;;;;;;6337791;22;20025;-81
2022/08/17 12:28:01;;;;;;;22.50;20.50;;;20.60;99.90;;;;;;6336435;22;20072;-81
2022/08/17 12:30:27;;;;;;;24.67;22.15;;;20.60;99.90;;;;;;6337905;22;20003;-82
2022/08/17 12:32:53;;;;;;;24.92;22.33;;;20.60;99.90;;;;;;6338298;22;20375;-82
2022/08/17 12:35:28;;;;;;;26.30;23.65;;;20.50;99.90;;;;;;6337759;22;20055;-82
2022/08/17 12:37:58;;;;;;;25.27;22.77;;;20.50;99.90;;;;;;6338108;22;19999;-82
2022/08/17 12:40:27;;;;;;;29.38;25.83;;;20.40;99.90;;;;;;6337236;22;19999;-81
2022/08/17 12:43:00;;;;;;;30.48;25.10;;;20.30;99.90;;;;;;6338727;22;19999;-82
2022/08/17 12:45:32;;;;;;;31.90;26.60;;;20.30;99.90;;;;;;6337409;22;20054;-82
2022/08/17 12:48:09;;;;;;;29.65;26.40;;;20.30;99.90;;;;;;6337734;22;20013;-82
2022/08/17 12:50:44;;;;;;;30.15;26.67;;;20.40;99.90;;;;;;6337694;22;19991;-82
2022/08/17 12:53:22;;;;;;;31.77;25.58;;;20.40;99.90;;;;;;6337951;22;20073;-80
2022/08/17 12:55:48;;;;;;;26.13;23.55;;;20.40;99.90;;;;;;6337887;22;20048;-81
2022/08/17 12:58:21;;;;;;;27.35;24.42;;;20.50;99.90;;;;;;6337445;22;20014;-81
2022/08/17 13:01:08;;;;;;;27.85;25.08;;;20.40;99.90;;;;;;6338515;22;20015;-82
2022/08/17 13:03:48;;;;;;;26.17;23.38;;;20.50;99.90;;;;;;6337627;22;19999;-81
2022/08/17 13:06:30;;;;;;;25.70;23.13;;;20.50;99.90;;;;;;6338459;22;20076;-81
2022/08/17 13:08:55;;;;;;;30.10;24.45;;;20.60;99.90;;;;;;6338155;22;20005;-80
2022/08/17 13:11:23;;;;;;;26.15;23.33;;;20.60;99.90;;;;;;6337318;22;20356;-80
2022/08/17 13:13:53;;;;;;;25.83;23.10;;;20.60;99.90;;;;;;6338186;22;20002;-80
2022/08/17 13:16:26;;;;;;;25.88;23.33;;;20.60;99.90;;;;;;6337106;22;20386;-80
2022/08/17 13:19:04;;;;;;;27.30;24.25;;;20.70;99.90;;;;;;6337103;22;19998;-80
2022/08/17 13:21:32;;;;;;;25.63;23.13;;;20.70;99.90;;;;;;6337661;22;20011;-80
2022/08/17 13:24:09;;;;;;;26.73;23.95;;;20.80;99.90;;;;;;6337615;22;20003;-80
2022/08/17 13:26:58;;;;;;;28.67;25.77;;;20.80;99.90;;;;;;6337285;22;20010;-80
2022/08/17 13:29:58;;;;;;;27.63;24.95;;;20.80;99.90;;;;;;6324454;22;20006;-81
2022/08/17 13:32:29;;;;;;;30.17;27.02;;;20.80;99.90;;;;;;6336266;22;20054;-82
2022/08/17 13:34:59;;;;;;;28.60;25.63;;;20.80;99.90;;;;;;6338141;22;19991;-82